createdAt,value
2023-02-02T00:01:01.331Z,90.35
2023-02-02T00:04:04.489Z,90.53
2023-02-02T00:07:07.593Z,89.57
2023-02-02T00:10:11.099Z,89.24
2023-02-02T00:13:14.583Z,89.74
2023-02-02T00:16:39.759Z,90.31
2023-02-02T00:19:42.672Z,90.37
2023-02-02T00:22:45.484Z,90.73
2023-02-02T00:25:51.241Z,90.36
2023-02-02T00:28:54.119Z,90.20
2023-02-02T00:31:58.646Z,90.34
2023-02-02T00:35:01.555Z,90.06
2023-02-02T00:38:04.375Z,90.27
2023-02-02T00:41:07.517Z,90.63
2023-02-02T00:44:28.772Z,90.07
2023-02-02T00:47:31.512Z,89.86
2023-02-02T00:50:34.671Z,89.37
2023-02-02T00:53:38.202Z,89.41
2023-02-02T00:56:41.712Z,89.22
2023-02-02T00:59:44.515Z,89.99
2023-02-02T01:02:47.563Z,89.90
2023-02-02T01:05:52.172Z,89.61
2023-02-02T01:08:55.083Z,89.44
2023-02-02T01:11:58.826Z,89.37
2023-02-02T01:15:02.685Z,89.34
2023-02-02T01:18:07.345Z,89.75
2023-02-02T01:21:12.787Z,89.88
2023-02-02T01:24:15.576Z,89.31
2023-02-02T01:27:18.685Z,88.21
2023-02-02T01:30:21.613Z,88.67
2023-02-02T01:33:25.608Z,88.57
2023-02-02T01:36:28.388Z,89.04
2023-02-02T01:39:34.216Z,89.34
2023-02-02T01:42:37.087Z,89.35
2023-02-02T01:45:39.885Z,89.07
2023-02-02T01:48:47.048Z,88.31
2023-02-02T01:51:59.363Z,88.13
2023-02-02T01:55:08.836Z,87.74
2023-02-02T01:58:17.576Z,87.62
2023-02-02T02:01:20.779Z,88.33
2023-02-02T02:04:25.447Z,87.95
2023-02-02T02:07:28.442Z,88.28
2023-02-02T02:10:31.417Z,88.77
2023-02-02T02:13:56.708Z,89.02
2023-02-02T02:17:25.654Z,88.09
2023-02-02T02:21:09.944Z,88.15
2023-02-02T02:24:54.339Z,87.76
2023-02-02T02:28:25.209Z,88.07
2023-02-02T02:31:53.160Z,88.86
2023-02-02T02:35:17.320Z,88.38
2023-02-02T02:38:30.599Z,88.67
2023-02-02T02:41:37.822Z,89.78
2023-02-02T02:44:42.100Z,90.27
2023-02-02T02:47:45.455Z,89.57
2023-02-02T02:50:48.352Z,89.58
2023-02-02T02:53:51.151Z,89.05
2023-02-02T02:57:09.943Z,89.67
2023-02-02T03:00:35.455Z,89.30
2023-02-02T03:03:55.433Z,88.44
2023-02-02T03:07:05.458Z,88.36
2023-02-02T03:10:12.610Z,88.30
2023-02-02T03:13:16.995Z,88.64
2023-02-02T03:16:19.686Z,88.67
2023-02-02T03:19:22.491Z,88.42
2023-02-02T03:22:25.519Z,88.24
2023-02-02T03:25:28.496Z,88.00
2023-02-02T03:28:32.632Z,87.94
2023-02-02T03:31:35.481Z,87.88
2023-02-02T03:34:43.229Z,87.66
2023-02-02T03:37:46.199Z,87.09
2023-02-02T03:40:49.050Z,87.60
2023-02-02T03:43:51.858Z,87.17
2023-02-02T03:46:55.242Z,86.52
2023-02-02T03:49:58.066Z,86.18
2023-02-02T03:53:00.913Z,85.13
2023-02-02T03:56:04.094Z,84.76
2023-02-02T03:59:07.169Z,84.18
2023-02-02T04:02:09.939Z,83.97
2023-02-02T04:05:12.778Z,83.28
2023-02-02T04:08:15.782Z,82.10
2023-02-02T04:11:19.405Z,81.44
2023-02-02T04:14:22.198Z,81.27
2023-02-02T04:17:25.044Z,80.17
2023-02-02T04:20:27.849Z,79.86
2023-02-02T04:23:31.369Z,80.26
2023-02-02T04:26:34.242Z,78.62
2023-02-02T04:29:37.179Z,78.59
2023-02-02T04:32:40.183Z,76.17
2023-02-02T04:35:43.947Z,75.65
2023-02-02T04:38:50.179Z,74.58
2023-02-02T04:41:52.969Z,73.54
2023-02-02T04:44:55.658Z,73.40
2023-02-02T04:47:58.450Z,74.10
2023-02-02T04:51:03.012Z,74.85
2023-02-02T04:54:07.345Z,75.56
2023-02-02T04:57:10.098Z,76.26
2023-02-02T05:00:18.677Z,77.04
2023-02-02T05:03:21.555Z,77.75
2023-02-02T05:06:24.667Z,79.15
2023-02-02T05:09:27.587Z,80.25
2023-02-02T05:12:30.793Z,81.26
2023-02-02T05:15:33.835Z,82.59
2023-02-02T05:18:36.681Z,82.57
2023-02-02T05:21:39.453Z,83.03
2023-02-02T05:24:42.220Z,83.32
2023-02-02T05:27:46.603Z,84.48
2023-02-02T05:30:49.769Z,84.16
2023-02-02T05:33:52.913Z,85.26
2023-02-02T05:36:55.689Z,85.90
2023-02-02T05:39:58.589Z,86.33
2023-02-02T05:43:01.407Z,86.64
2023-02-02T05:46:08.948Z,87.31
2023-02-02T05:49:14.158Z,87.65
2023-02-02T05:52:21.713Z,88.19
2023-02-02T05:55:24.788Z,87.90
2023-02-02T05:58:28.484Z,88.29
2023-02-02T06:01:31.440Z,88.09
2023-02-02T06:04:34.292Z,88.04
2023-02-02T06:07:37.094Z,87.95
2023-02-02T06:10:42.665Z,88.19
2023-02-02T06:13:46.354Z,87.52
2023-02-02T06:16:49.111Z,87.24
2023-02-02T06:19:51.872Z,86.33
2023-02-02T06:22:54.878Z,85.98
2023-02-02T06:25:57.773Z,86.24
2023-02-02T06:29:00.805Z,85.61
2023-02-02T06:32:04.185Z,86.25
2023-02-02T06:35:08.169Z,85.07
2023-02-02T06:38:11.542Z,84.76
2023-02-02T06:41:14.319Z,84.26
2023-02-02T06:44:19.402Z,83.88
2023-02-02T06:47:22.264Z,83.24
2023-02-02T06:50:25.156Z,82.12
2023-02-02T06:53:28.422Z,81.37
2023-02-02T06:56:31.248Z,81.41
2023-02-02T06:59:43.583Z,82.32
2023-02-02T07:02:47.731Z,82.71
2023-02-02T07:05:51.056Z,83.27
2023-02-02T07:09:03.488Z,83.22
2023-02-02T07:12:10.347Z,83.02
2023-02-02T07:15:18.187Z,82.06
2023-02-02T07:18:21.306Z,81.71
2023-02-02T07:21:26.657Z,81.69
2023-02-02T07:24:29.595Z,81.84
2023-02-02T07:27:34.271Z,82.08
2023-02-02T07:30:37.746Z,81.70
2023-02-02T07:33:42.561Z,81.11
2023-02-02T07:36:45.698Z,80.30
2023-02-02T07:39:48.573Z,79.47
2023-02-02T07:42:51.463Z,78.55
2023-02-02T07:45:54.435Z,78.13
2023-02-02T07:48:58.084Z,77.65
2023-02-02T07:52:01.032Z,77.33
2023-02-02T07:55:14.387Z,76.89
2023-02-02T07:58:17.884Z,76.38
2023-02-02T08:01:23.228Z,76.57
2023-02-02T08:04:26.297Z,75.84
2023-02-02T08:07:29.367Z,76.88
2023-02-02T08:10:32.185Z,75.89
2023-02-02T08:13:35.017Z,76.01
2023-02-02T08:16:37.935Z,74.68
2023-02-02T08:19:40.685Z,74.67
2023-02-02T08:22:43.675Z,74.58
2023-02-02T08:25:46.535Z,75.33
2023-02-02T08:29:03.021Z,74.76
2023-02-02T08:32:06.033Z,74.36
2023-02-02T08:35:09.214Z,74.12
2023-02-02T08:38:12.200Z,73.80
2023-02-02T08:41:18.567Z,72.89
2023-02-02T08:44:21.307Z,73.17
2023-02-02T08:47:30.001Z,72.33
2023-02-02T08:50:34.417Z,71.96
2023-02-02T08:53:38.034Z,72.23
2023-02-02T08:56:40.917Z,72.93
2023-02-02T08:59:43.836Z,73.27
2023-02-02T09:02:51.198Z,72.36
2023-02-02T09:05:56.494Z,72.68
2023-02-02T09:09:01.980Z,73.07
2023-02-02T09:12:05.032Z,73.53
2023-02-02T09:15:08.129Z,73.47
2023-02-02T09:18:11.126Z,73.78
2023-02-02T09:21:16.246Z,74.47
2023-02-02T09:24:19.284Z,73.78
2023-02-02T09:27:22.517Z,74.04
2023-02-02T09:30:25.388Z,73.56
2023-02-02T09:33:28.294Z,72.47
2023-02-02T09:36:32.327Z,71.93
2023-02-02T09:39:35.348Z,72.05
2023-02-02T09:42:44.274Z,70.55
2023-02-02T09:45:58.657Z,67.21
2023-02-02T09:49:11.472Z,64.19
2023-02-02T09:52:20.822Z,57.76
2023-02-02T09:55:30.139Z,55.44
2023-02-02T09:59:02.147Z,53.39
2023-02-02T10:02:22.362Z,53.99
2023-02-02T10:05:30.305Z,52.98
2023-02-02T10:08:46.007Z,51.51
2023-02-02T10:12:17.480Z,51.92
2023-02-02T10:15:39.857Z,50.52
2023-02-02T10:18:56.605Z,51.14
2023-02-02T10:22:20.065Z,50.43
2023-02-02T10:25:26.653Z,46.63
2023-02-02T10:28:44.950Z,46.84
2023-02-02T10:32:06.727Z,43.33
2023-02-02T10:35:27.610Z,43.59
2023-02-02T10:38:53.162Z,40.12
2023-02-02T10:42:34.271Z,34.61
2023-02-02T10:45:39.512Z,32.36
2023-02-02T10:48:46.630Z,31.51
2023-02-02T10:52:08.256Z,29.23
2023-02-02T10:55:14.292Z,27.92
2023-02-02T10:58:39.173Z,28.60
2023-02-02T11:01:43.324Z,27.73
2023-02-02T11:05:07.112Z,29.50
2023-02-02T11:08:13.894Z,28.68
2023-02-02T11:11:38.610Z,32.16
2023-02-02T11:14:47.889Z,33.88
2023-02-02T11:17:51.116Z,35.92
2023-02-02T11:20:54.997Z,39.20
2023-02-02T11:24:23.988Z,41.73
2023-02-02T11:27:33.511Z,41.08
2023-02-02T11:30:38.534Z,42.33
2023-02-02T11:33:41.324Z,42.51
2023-02-02T11:37:00.431Z,43.20
2023-02-02T11:40:30.181Z,43.48
2023-02-02T11:43:52.535Z,43.76
2023-02-02T11:46:56.947Z,43.74
2023-02-02T11:50:02.726Z,42.86
2023-02-02T11:53:07.064Z,42.74
2023-02-02T11:56:19.240Z,41.22
2023-02-02T11:59:34.966Z,41.54
2023-02-02T12:02:45.361Z,41.87
2023-02-02T12:05:50.093Z,40.56
2023-02-02T12:08:58.499Z,41.52
2023-02-02T12:12:30.934Z,41.24
2023-02-02T12:15:55.459Z,41.76
2023-02-02T12:19:24.652Z,42.36
2023-02-02T12:22:36.370Z,43.63
2023-02-02T12:26:27.362Z,43.16
2023-02-02T12:29:59.347Z,43.12
2023-02-02T12:33:08.416Z,40.31
2023-02-02T12:36:14.133Z,38.38
2023-02-02T12:39:30.564Z,34.74
2023-02-02T12:42:51.552Z,35.60
2023-02-02T12:46:21.632Z,37.98
2023-02-02T12:50:03.019Z,40.24
2023-02-02T12:53:30.712Z,39.82
2023-02-02T12:56:40.244Z,38.36
2023-02-02T13:00:25.012Z,39.48
2023-02-02T13:03:35.158Z,41.47
2023-02-02T13:06:53.989Z,42.01
2023-02-02T13:10:28.653Z,42.61
2023-02-02T13:13:37.700Z,43.42
2023-02-02T13:16:48.614Z,44.96
2023-02-02T13:19:56.428Z,46.14
2023-02-02T13:23:03.536Z,46.29
2023-02-02T13:26:20.158Z,47.39
2023-02-02T13:29:50.737Z,46.80
2023-02-02T13:32:58.327Z,48.15
2023-02-02T13:36:06.307Z,47.62
2023-02-02T13:39:45.243Z,47.84
2023-02-02T13:43:04.904Z,48.13
2023-02-02T13:46:24.123Z,49.36
2023-02-02T13:49:44.893Z,49.77
2023-02-02T13:53:02.851Z,50.06
2023-02-02T13:56:49.100Z,50.13
2023-02-02T13:59:55.286Z,51.32
2023-02-02T14:03:03.469Z,51.96
2023-02-02T14:06:17.109Z,52.04
2023-02-02T14:09:20.415Z,52.30
2023-02-02T14:12:33.183Z,52.67
2023-02-02T14:15:44.699Z,53.82
2023-02-02T14:18:51.048Z,53.21
2023-02-02T14:22:01.479Z,52.95
2023-02-02T14:25:24.897Z,54.28
2023-02-02T14:28:43.463Z,54.15
2023-02-02T14:31:55.238Z,54.52
2023-02-02T14:35:00.420Z,55.59
2023-02-02T14:38:14.708Z,55.25
2023-02-02T14:42:06.669Z,55.21
2023-02-02T14:45:21.989Z,56.01
2023-02-02T14:48:25.797Z,55.82
2023-02-02T14:51:32.199Z,55.33
2023-02-02T14:54:40.105Z,55.70
2023-02-02T14:57:43.051Z,56.12
2023-02-02T15:01:05.674Z,57.02
2023-02-02T15:04:21.216Z,56.90
2023-02-02T15:07:23.894Z,57.76
2023-02-02T15:10:54.130Z,57.82
2023-02-02T15:14:07.192Z,57.39
2023-02-02T15:17:31.271Z,57.39
2023-02-02T15:20:44.805Z,58.00
2023-02-02T15:23:47.939Z,58.16
2023-02-02T15:26:54.709Z,58.68
2023-02-02T15:30:03.849Z,59.36
2023-02-02T15:33:28.124Z,59.57
2023-02-02T15:36:37.768Z,59.75
2023-02-02T15:39:43.524Z,59.70
2023-02-02T15:42:54.243Z,59.48
2023-02-02T15:46:04.879Z,59.92
2023-02-02T15:49:36.044Z,59.52
2023-02-02T15:52:47.471Z,59.53
2023-02-02T15:55:50.751Z,60.11
2023-02-02T15:58:56.347Z,60.24
2023-02-02T16:02:11.749Z,60.69
2023-02-02T16:05:36.728Z,61.28
2023-02-02T16:08:41.224Z,61.14
2023-02-02T16:11:45.911Z,62.26
2023-02-02T16:14:54.346Z,61.91
2023-02-02T16:18:00.735Z,62.57
2023-02-02T16:21:16.239Z,62.17
2023-02-02T16:24:41.810Z,62.13
2023-02-02T16:27:47.558Z,62.33
2023-02-02T16:30:52.597Z,62.34
2023-02-02T16:33:57.161Z,63.44
2023-02-02T16:37:15.311Z,63.42
2023-02-02T16:40:29.731Z,63.17
2023-02-02T16:43:33.730Z,63.43
2023-02-02T16:46:44.342Z,63.03
2023-02-02T16:49:47.232Z,63.73
2023-02-02T16:53:03.658Z,63.87
2023-02-02T16:56:07.932Z,63.31
2023-02-02T16:59:25.539Z,63.62
2023-02-02T17:02:41.164Z,63.74
2023-02-02T17:05:54.540Z,64.09
2023-02-02T17:08:57.351Z,64.14
2023-02-02T17:12:32.135Z,64.13
2023-02-02T17:15:37.143Z,64.52
2023-02-02T17:18:40.397Z,64.75
2023-02-02T17:21:43.503Z,64.77
2023-02-02T17:24:48.302Z,65.43
2023-02-02T17:27:51.421Z,65.84
2023-02-02T17:31:00.674Z,66.16
2023-02-02T17:34:04.436Z,65.80
2023-02-02T17:37:07.730Z,66.72
2023-02-02T17:40:18.214Z,66.74
2023-02-02T17:43:21.397Z,66.15
2023-02-02T17:46:24.535Z,66.35
2023-02-02T17:49:27.436Z,66.57
2023-02-02T17:52:30.291Z,66.73
2023-02-02T17:55:38.954Z,67.03
2023-02-02T17:58:42.396Z,67.13
2023-02-02T18:01:46.506Z,67.47
2023-02-02T18:04:49.296Z,67.49
2023-02-02T18:07:55.014Z,67.55
2023-02-02T18:10:59.573Z,67.39
2023-02-02T18:14:02.622Z,66.63
2023-02-02T18:17:08.368Z,66.60
2023-02-02T18:20:15.231Z,66.91
2023-02-02T18:23:19.404Z,67.03
2023-02-02T18:26:23.296Z,67.52
2023-02-02T18:29:26.376Z,67.70
2023-02-02T18:32:29.496Z,68.04
2023-02-02T18:35:32.245Z,68.17
2023-02-02T18:38:35.085Z,68.35
2023-02-02T18:41:38.162Z,68.33
2023-02-02T18:44:42.944Z,68.06
2023-02-02T18:47:45.858Z,68.01
2023-02-02T18:50:48.977Z,68.70
2023-02-02T18:53:51.956Z,68.44
2023-02-02T18:56:54.919Z,68.06
2023-02-02T18:59:57.755Z,68.58
2023-02-02T19:03:00.828Z,68.64
2023-02-02T19:06:23.357Z,68.32
2023-02-02T19:09:26.414Z,68.96
2023-02-02T19:12:29.458Z,69.01
2023-02-02T19:15:39.446Z,68.91
2023-02-02T19:18:44.142Z,68.39
2023-02-02T19:21:47.128Z,68.88
2023-02-02T19:24:52.967Z,69.24
2023-02-02T19:27:55.822Z,69.51
2023-02-02T19:31:01.572Z,70.04
2023-02-02T19:34:13.687Z,70.23
2023-02-02T19:37:28.676Z,70.66
2023-02-02T19:40:31.712Z,71.28
2023-02-02T19:43:36.635Z,71.78
2023-02-02T19:46:43.898Z,71.39
2023-02-02T19:49:47.048Z,71.98
2023-02-02T19:52:51.117Z,71.98
2023-02-02T19:55:54.755Z,71.84
2023-02-02T19:58:59.168Z,71.79
2023-02-02T20:02:41.549Z,72.96
2023-02-02T20:05:47.494Z,72.95
2023-02-02T20:08:51.616Z,73.26
2023-02-02T20:11:56.683Z,73.62
2023-02-02T20:14:59.707Z,74.60
2023-02-02T20:18:14.565Z,73.99
2023-02-02T20:21:34.491Z,75.25
2023-02-02T20:24:43.190Z,74.92
2023-02-02T20:27:46.308Z,75.32
2023-02-02T20:30:49.454Z,74.45
2023-02-02T20:33:55.492Z,74.76
2023-02-02T20:37:14.180Z,74.45
2023-02-02T20:40:20.153Z,74.80
2023-02-02T20:43:23.237Z,74.44
2023-02-02T20:46:26.104Z,74.71
2023-02-02T20:49:32.015Z,74.27
2023-02-02T20:52:35.573Z,74.67
2023-02-02T20:55:38.531Z,74.97
2023-02-02T20:58:41.347Z,75.58
2023-02-02T21:01:44.548Z,75.79
2023-02-02T21:04:48.839Z,75.60
2023-02-02T21:07:54.998Z,76.04
2023-02-02T21:10:57.794Z,75.18
2023-02-02T21:14:01.036Z,75.32
2023-02-02T21:17:14.384Z,75.13
2023-02-02T21:20:18.183Z,75.59
2023-02-02T21:23:22.032Z,75.35
2023-02-02T21:26:29.990Z,74.92
2023-02-02T21:29:33.497Z,75.55
2023-02-02T21:32:36.378Z,74.83
2023-02-02T21:35:39.252Z,74.80
2023-02-02T21:38:42.143Z,74.26
2023-02-02T21:41:45.433Z,74.81
2023-02-02T21:44:54.348Z,75.06
2023-02-02T21:48:05.319Z,75.00
2023-02-02T21:51:29.177Z,74.69
2023-02-02T21:54:37.714Z,75.09
2023-02-02T21:57:42.333Z,75.70
2023-02-02T22:00:45.748Z,75.91
2023-02-02T22:03:50.113Z,75.76
2023-02-02T22:07:09.519Z,75.77
2023-02-02T22:10:34.148Z,76.06
2023-02-02T22:13:36.843Z,76.91
2023-02-02T22:16:44.096Z,76.47
2023-02-02T22:19:46.968Z,76.50
2023-02-02T22:22:51.537Z,76.39
2023-02-02T22:25:56.413Z,76.63
2023-02-02T22:28:59.488Z,76.43
2023-02-02T22:32:02.495Z,76.19
2023-02-02T22:35:05.733Z,76.84
2023-02-02T22:38:09.618Z,76.41
2023-02-02T22:41:12.458Z,76.78
2023-02-02T22:44:15.511Z,76.41
2023-02-02T22:47:18.213Z,76.21
2023-02-02T22:50:26.794Z,76.52
2023-02-02T22:53:29.771Z,76.30
2023-02-02T22:56:32.696Z,76.62
2023-02-02T22:59:35.890Z,76.59
2023-02-02T23:02:40.916Z,76.88
2023-02-02T23:05:43.792Z,77.45
2023-02-02T23:08:46.838Z,77.50
2023-02-02T23:11:49.965Z,76.78
2023-02-02T23:14:52.838Z,77.57
2023-02-02T23:17:55.654Z,76.30
2023-02-02T23:20:58.729Z,76.38
2023-02-02T23:24:01.612Z,76.27
2023-02-02T23:27:04.927Z,76.58
2023-02-02T23:30:09.572Z,76.04
2023-02-02T23:33:12.342Z,76.40
2023-02-02T23:36:15.213Z,76.17
2023-02-02T23:39:18.110Z,75.92
2023-02-02T23:42:21.205Z,76.24
2023-02-02T23:45:24.078Z,75.84
2023-02-02T23:48:26.969Z,76.02
2023-02-02T23:51:30.012Z,75.93
2023-02-02T23:54:33.845Z,76.66
2023-02-02T23:57:37.891Z,76.87
